.
WxDataArchive / Data Records for 2007-07-29
2007-07-28 July 2007 2007-07-30

Data Records for Sunday, 29 July 2007

Time	Temp	Chill	HIndex	Humid	Dewpt	 Wind 	HiWind	WindDir	Rain 	Barom 
-----	----	-----	------	-----	-----	------	------	-------	-----	----- 
00:00	66.6	66.6	66.6	91	63.9	0	0	---	0.00	29.894 
00:05	66.4	66.4	66.4	91	63.7	0	0	---	0.00	29.894 
00:10	66.3	66.3	66.3	91	63.6	0	0	---	0.00	29.894 
00:15	66.1	66.1	66.1	92	63.7	0	0	---	0.00	29.893 
00:20	66.0	66.0	66.0	92	63.6	0	0	---	0.00	29.892 
00:25	66.0	66.0	66.0	92	63.6	0	0	---	0.00	29.891 
00:30	65.8	65.8	65.8	92	63.4	0	0	---	0.00	29.892 
00:35	65.8	65.8	65.8	93	63.7	0	0	---	0.00	29.891 
00:40	65.6	65.6	65.6	93	63.5	0	0	---	0.00	29.891 
00:45	65.5	65.5	65.5	93	63.4	0	0	---	0.00	29.887 
00:50	65.5	65.5	65.5	93	63.4	0	0	---	0.00	29.886 
00:55	65.3	65.3	65.3	94	63.5	0	0	---	0.00	29.887 
01:00	65.3	65.3	65.3	94	63.5	0	0	---	0.00	29.886 
01:05	65.3	65.3	65.3	94	63.5	0	0	---	0.00	29.890 
01:10	65.3	65.3	65.3	95	63.8	0	0	---	0.00	29.888 
01:15	65.3	65.3	65.3	95	63.8	0	0	---	0.00	29.889 
01:20	65.3	65.3	65.3	95	63.8	0	0	---	0.00	29.889 
01:25	65.2	65.2	65.2	95	63.7	0	0	---	0.00	29.887 
01:30	65.2	65.2	65.2	95	63.7	0	0	---	0.00	29.886 
01:35	65.2	65.2	65.2	95	63.7	0	0	---	0.00	29.883 
01:40	65.2	65.2	65.2	95	63.7	0	0	---	0.00	29.882 
01:45	65.0	65.0	65.0	95	63.5	0	0	---	0.00	29.882 
01:50	65.0	65.0	65.0	96	63.8	0	0	---	0.00	29.882 
01:55	65.0	65.0	65.0	96	63.8	0	0	---	0.00	29.881 
02:00	64.8	64.8	64.8	96	63.6	0	0	---	0.00	29.882 
02:05	64.7	64.7	64.7	96	63.5	0	0	---	0.00	29.881 
02:10	64.7	64.7	64.7	96	63.5	0	0	---	0.00	29.882 
02:15	64.7	64.7	64.7	96	63.5	0	0	---	0.00	29.882 
02:20	64.5	64.5	64.5	96	63.3	0	0	---	0.00	29.882 
02:25	64.5	64.5	64.5	96	63.3	0	0	---	0.00	29.882 
02:30	64.5	64.5	64.5	96	63.3	0	0	---	0.00	29.885 
02:35	64.3	64.3	64.3	96	63.1	0	0	---	0.00	29.885 
02:40	64.3	64.3	64.3	96	63.1	0	0	---	0.00	29.884 
02:45	64.3	64.3	64.3	96	63.1	0	0	---	0.00	29.884 
02:50	64.2	64.2	64.2	96	63.0	0	0	---	0.00	29.888 
02:55	64.2	64.2	64.2	96	63.0	0	0	---	0.00	29.887 
03:00	64.2	64.2	64.2	96	63.0	0	0	---	0.00	29.884 
03:05	64.0	64.0	64.0	96	62.8	0	0	---	0.00	29.880 
03:10	63.9	63.9	63.9	96	62.7	0	0	---	0.00	29.879 
03:15	63.9	63.9	63.9	96	62.7	0	0	---	0.00	29.879 
03:20	63.7	63.7	63.7	96	62.5	0	0	---	0.00	29.880 
03:25	63.7	63.7	63.7	96	62.5	0	0	---	0.00	29.879 
03:30	63.5	63.5	63.5	96	62.3	0	0	---	0.00	29.879 
03:35	63.5	63.5	63.5	96	62.3	0	0	---	0.00	29.880 
03:40	63.5	63.5	63.5	96	62.3	0	0	---	0.00	29.881 
03:45	63.4	63.4	63.4	96	62.2	0	0	---	0.00	29.880 
03:50	63.4	63.4	63.4	96	62.2	0	0	---	0.00	29.882 
03:55	63.2	63.2	63.2	96	62.0	0	0	---	0.00	29.885 
04:00	63.2	63.2	63.2	96	62.0	0	0	---	0.00	29.885 
04:05	63.4	63.4	63.4	96	62.2	0	0	---	0.00	29.888 
04:10	63.5	63.5	63.5	96	62.3	0	0	---	0.00	29.890 
04:15	63.4	63.4	63.4	96	62.2	0	0	---	0.00	29.891 
04:20	63.4	63.4	63.4	96	62.2	0	0	---	0.00	29.893 
04:25	63.2	63.2	63.2	96	62.0	0	0	---	0.00	29.894 
04:30	63.1	63.1	63.1	96	61.9	0	0	---	0.00	29.893 
04:35	62.9	62.9	62.9	96	61.7	0	0	---	0.00	29.893 
04:40	62.6	62.6	62.6	96	61.4	0	0	---	0.00	29.892 
04:45	62.4	62.4	62.4	96	61.2	0	0	---	0.00	29.893 
04:50	62.3	62.3	62.3	95	60.8	0	0	---	0.00	29.893 
04:55	62.1	62.1	62.1	95	60.6	0	0	---	0.00	29.893 
05:00	62.0	62.0	62.0	94	60.2	0	0	---	0.00	29.896 
05:05	61.8	61.8	61.8	94	60.1	0	0	---	0.00	29.898 
05:10	61.6	61.6	61.6	94	59.9	0	0	---	0.00	29.898 
05:15	61.6	61.6	61.6	93	59.6	0	0	---	0.00	29.899 
05:20	61.5	61.5	61.5	93	59.5	0	0	---	0.00	29.898 
05:25	61.5	61.5	61.5	93	59.5	0	0	---	0.00	29.897 
05:30	61.3	61.3	61.3	93	59.3	0	0	---	0.00	29.897 
05:35	61.3	61.3	61.3	93	59.3	0	0	---	0.00	29.897 
05:40	61.2	61.2	61.2	92	58.9	0	0	---	0.00	29.898 
05:45	61.2	61.2	61.2	92	58.9	0	0	---	0.00	29.899 
05:50	61.0	61.0	61.0	92	58.7	0	0	---	0.00	29.900 
05:55	61.0	61.0	61.0	92	58.7	0	0	---	0.00	29.900 
06:00	61.0	61.0	61.0	92	58.7	0	0	---	0.00	29.903 
06:05	61.0	61.0	61.0	92	58.7	0	0	---	0.00	29.903 
06:10	61.2	61.2	61.2	92	58.9	0	0	---	0.00	29.904 
06:15	61.3	61.3	61.3	92	59.0	0	1	112	0.00	29.908 
06:20	61.5	61.5	61.5	92	59.2	0	1	112	0.00	29.908 
06:25	61.8	61.8	61.8	92	59.4	0	1	112	0.00	29.909 
06:30	62.3	62.3	62.3	91	59.6	0	1	112	0.00	29.911 
06:35	62.9	62.9	62.9	89	59.6	0	1	112	0.00	29.911 
06:40	63.4	63.4	63.4	87	59.5	0	2	112	0.00	29.912 
06:45	64.2	64.2	64.2	85	59.6	0	2	112	0.00	29.912 
06:50	64.8	64.8	64.8	84	59.8	0	2	112	0.00	29.911 
06:55	65.6	65.6	65.6	81	59.6	1	3	112	0.00	29.911 
07:00	66.3	66.3	66.3	80	59.9	1	4	112	0.00	29.911 
07:05	66.6	66.6	66.6	78	59.5	1	5	112	0.00	29.913 
07:10	67.1	67.1	67.1	78	60.0	1	3	45	0.00	29.913 
07:15	67.4	67.4	67.4	77	59.9	1	2	90	0.00	29.913 
07:20	67.9	67.9	67.9	78	60.8	1	2	90	0.00	29.911 
07:25	68.4	68.4	68.4	75	60.2	1	3	112	0.00	29.912 
07:30	68.6	68.6	68.6	75	60.3	1	4	68	0.00	29.912 
07:35	68.9	68.9	68.9	75	60.6	1	3	68	0.00	29.911 
07:40	69.1	69.1	69.1	75	60.8	1	4	90	0.00	29.911 
07:45	69.4	69.4	69.4	73	60.4	1	5	68	0.00	29.911 
07:50	69.8	69.8	69.8	73	60.7	1	4	90	0.00	29.910 
07:55	70.3	70.3	70.3	73	61.2	1	4	90	0.00	29.911 
08:00	70.4	70.4	70.4	72	60.9	1	4	45	0.00	29.911 
08:05	70.6	70.6	70.6	71	60.7	2	4	68	0.00	29.917 
08:10	70.8	70.8	70.8	71	60.9	2	4	90	0.00	29.919 
08:15	71.1	71.1	71.1	73	62.0	1	3	90	0.00	29.918 
08:20	71.5	71.5	71.5	71	61.6	1	5	68	0.00	29.922 
08:25	71.6	71.6	71.6	71	61.7	2	4	90	0.00	29.923 
08:30	72.0	72.0	72.0	70	61.7	1	6	90	0.00	29.923 
08:35	72.3	72.3	72.3	70	62.0	2	4	90	0.00	29.923 
08:40	72.3	72.3	72.3	69	61.5	2	4	90	0.00	29.922 
08:45	72.7	72.7	72.7	70	62.3	2	4	90	0.00	29.918 
08:50	73.0	73.0	73.0	69	62.2	3	7	90	0.00	29.917 
08:55	72.7	72.7	72.7	69	61.9	3	9	90	0.00	29.919 
09:00	72.8	72.8	72.8	70	62.4	2	4	112	0.00	29.919 
09:05	73.3	73.3	73.3	68	62.1	2	5	112	0.00	29.918 
09:10	73.7	73.7	73.7	68	62.5	3	6	112	0.00	29.919 
09:15	73.9	73.9	73.9	68	62.7	2	4	90	0.00	29.918 
09:20	74.4	74.4	74.4	68	63.1	2	4	90	0.00	29.918 
09:25	74.9	74.9	74.9	68	63.6	1	4	90	0.00	29.919 
09:30	75.3	75.3	77.3	65	62.7	2	4	90	0.00	29.921 
09:35	75.1	75.1	77.1	66	62.9	3	6	112	0.00	29.922 
09:40	75.4	75.4	77.2	68	64.1	2	5	112	0.00	29.922 
09:45	76.0	76.0	77.7	68	64.7	1	6	180	0.00	29.920 
09:50	76.7	76.7	78.5	66	64.5	1	3	45	0.00	29.920 
09:55	76.8	76.8	78.6	64	63.7	2	4	90	0.00	29.920 
10:00	76.8	76.8	78.6	64	63.7	2	4	90	0.00	29.921 
10:05	77.2	77.2	79.0	66	64.9	1	4	112	0.00	29.921 
10:10	77.0	77.0	78.8	65	64.3	1	2	112	0.00	29.923 
10:15	77.4	77.4	79.2	66	65.1	1	4	112	0.00	29.923 
10:20	77.4	77.4	79.2	64	64.2	1	2	0	0.00	29.923 
10:25	78.1	78.1	80.0	66	65.8	1	3	45	0.00	29.923 
10:30	78.5	78.5	80.4	65	65.7	1	4	90	0.00	29.921 
10:35	78.8	78.8	80.5	61	64.2	1	4	68	0.00	29.919 
10:40	79.0	79.0	80.7	60	63.9	2	4	112	0.00	29.917 
10:45	79.2	79.2	81.0	61	64.6	2	5	90	0.00	29.916 
10:50	79.4	79.4	81.3	62	65.2	2	5	112	0.00	29.912 
10:55	79.4	79.4	81.2	61	64.8	2	7	90	0.00	29.911 
11:00	79.6	79.6	81.6	63	65.9	1	4	112	0.00	29.913 
11:05	80.1	80.1	82.5	65	67.2	0	2	112	0.00	29.915 
11:10	80.7	80.7	82.9	62	66.4	1	3	68	0.00	29.915 
11:15	81.1	81.1	82.9	58	64.9	1	4	90	0.00	29.915 
11:20	81.1	81.1	82.9	58	64.9	2	7	90	0.00	29.913 
11:25	81.1	81.1	83.3	61	66.4	1	6	90	0.00	29.911 
11:30	81.1	81.1	82.9	58	64.9	2	6	112	0.00	29.910 
11:35	81.2	81.2	83.3	60	66.0	1	3	135	0.00	29.909 
11:40	81.2	81.2	83.3	60	66.0	0	2	90	0.00	29.910 
11:45	81.6	81.6	84.0	61	66.8	1	5	90	0.00	29.908 
11:50	82.2	82.2	84.5	59	66.4	2	6	90	0.00	29.908 
11:55	82.0	82.0	83.7	56	64.7	2	5	112	0.00	29.909 
12:00	82.0	82.0	83.7	56	64.7	1	3	45	0.00	29.907 
12:05	81.6	81.6	84.0	61	66.8	1	4	68	0.00	29.908 
12:10	81.6	81.6	83.5	58	65.4	1	6	158	0.00	29.908 
12:15	81.8	81.8	83.8	58	65.6	2	6	112	0.00	29.907 
12:20	82.4	82.4	84.4	57	65.6	0	3	68	0.00	29.907 
12:25	82.0	82.0	84.1	58	65.7	1	6	112	0.00	29.907 
12:30	82.0	82.0	84.2	59	66.2	1	6	112	0.00	29.904 
12:35	82.4	82.4	84.6	58	66.1	1	4	112	0.00	29.901 
12:40	82.6	82.6	85.1	59	66.8	1	3	90	0.00	29.898 
12:45	82.8	82.8	85.0	57	66.0	1	3	180	0.00	29.894 
12:50	82.6	82.6	84.3	55	64.8	3	7	90	0.00	29.896 
12:55	82.6	82.6	85.1	59	66.8	1	5	90	0.00	29.894 
13:00	83.0	83.0	85.5	58	66.7	1	5	112	0.00	29.894 
13:05	83.0	83.0	84.9	55	65.1	2	8	90	0.00	29.893 
13:10	83.2	83.2	85.3	56	65.8	2	5	90	0.00	29.893 
13:15	83.4	83.4	85.2	54	65.0	3	6	112	0.00	29.893 
13:20	83.0	83.0	84.9	55	65.1	2	5	90	0.00	29.891 
13:25	82.8	82.8	85.0	57	66.0	0	3	112	0.00	29.891 
13:30	82.6	82.6	84.1	54	64.2	1	5	135	0.00	29.891 
13:35	82.8	82.8	85.0	57	66.0	2	6	112	0.00	29.890 
13:40	82.6	82.6	84.0	53	63.7	3	6	112	0.00	29.892 
13:45	83.0	83.0	84.7	54	64.6	3	7	90	0.00	29.889 
13:50	83.2	83.2	84.9	54	64.8	3	7	90	0.00	29.890 
13:55	83.0	83.0	85.1	56	65.7	2	5	90	0.00	29.889 
14:00	83.2	83.2	84.9	54	64.8	3	6	112	0.00	29.890 
14:05	83.4	83.4	85.0	53	64.4	3	6	112	0.00	29.892 
14:10	83.2	83.2	84.9	54	64.8	3	6	90	0.00	29.892 
14:15	83.6	83.6	85.2	53	64.6	2	5	90	0.00	29.890 
14:20	84.0	84.0	85.8	53	65.0	3	6	90	0.00	29.891 
14:25	84.0	84.0	85.6	52	64.4	3	7	90	0.00	29.890 
14:30	84.1	84.1	85.5	51	64.0	3	6	90	0.00	29.890 
14:35	84.3	84.3	85.7	51	64.2	3	6	90	0.00	29.889 
14:40	84.0	84.0	85.3	51	63.9	2	6	90	0.00	29.888 
14:45	84.0	84.0	84.7	48	62.2	4	10	90	0.00	29.889 
14:50	84.1	84.1	85.0	49	62.8	3	5	90	0.00	29.887 
14:55	84.0	84.0	84.9	49	62.8	3	7	90	0.00	29.884 
15:00	84.3	84.3	84.9	47	61.8	3	6	112	0.00	29.888 
15:05	84.5	84.5	85.8	50	63.8	3	6	90	0.00	29.887 
15:10	84.5	84.5	84.5	44	60.2	4	9	90	0.00	29.884 
15:15	84.3	84.3	85.1	48	62.4	4	9	90	0.00	29.880 
15:20	84.3	84.3	85.5	50	63.6	3	5	112	0.00	29.879 
15:25	84.3	84.3	85.3	49	63.0	3	6	90	0.00	29.879 
15:30	84.3	84.3	85.7	51	64.2	4	7	90	0.00	29.880 
15:35	84.3	84.3	85.7	51	64.2	2	6	90	0.00	29.879 
15:40	84.3	84.3	85.5	50	63.6	3	7	90	0.00	29.878 
15:45	84.1	84.1	85.3	50	63.4	4	8	90	0.00	29.879 
15:50	84.0	84.0	85.6	52	64.4	2	5	90	0.00	29.878 
15:55	84.1	84.1	85.7	52	64.5	3	7	112	0.00	29.878 
16:00	84.3	84.3	86.5	54	65.8	3	9	90	0.00	29.876 
16:05	84.1	84.1	85.3	50	63.4	2	6	90	0.00	29.878 
16:10	84.3	84.3	85.3	49	63.0	2	5	90	0.00	29.876 
16:15	84.5	84.5	85.8	50	63.8	2	3	112	0.00	29.875 
16:20	84.3	84.3	85.3	49	63.0	3	7	90	0.00	29.875 
16:25	84.3	84.3	85.3	49	63.0	2	6	112	0.00	29.875 
16:30	84.3	84.3	85.7	51	64.2	1	4	112	0.00	29.874 
16:35	84.5	84.5	86.5	53	65.5	2	4	112	0.00	29.873 
16:40	84.5	84.5	86.3	52	64.9	1	5	90	0.00	29.872 
16:45	84.3	84.3	86.5	54	65.8	2	4	90	0.00	29.874 
16:50	84.1	84.1	85.3	50	63.4	3	6	90	0.00	29.874 
16:55	84.0	84.0	85.6	52	64.4	2	4	90	0.00	29.872 
17:00	83.8	83.8	84.9	50	63.1	3	5	90	0.00	29.870 
17:05	83.6	83.6	84.8	51	63.5	2	5	112	0.00	29.871 
17:10	83.6	83.6	85.5	54	65.2	1	2	68	0.00	29.869 
17:15	83.4	83.4	84.8	52	63.9	1	5	112	0.00	29.869 
17:20	83.2	83.2	84.7	53	64.3	3	9	90	0.00	29.871 
17:25	83.0	83.0	84.5	53	64.1	3	6	90	0.00	29.871 
17:30	82.8	82.8	84.0	52	63.3	2	5	90	0.00	29.869 
17:35	82.6	82.6	84.0	53	63.7	2	5	90	0.00	29.869 
17:40	82.6	82.6	84.3	55	64.8	1	4	90	0.00	29.869 
17:45	82.6	82.6	84.5	56	65.3	2	9	90	0.00	29.868 
17:50	82.4	82.4	83.9	54	64.1	3	7	90	0.00	29.870 
17:55	82.2	82.2	83.3	52	62.8	3	6	90	0.00	29.870 
18:00	82.0	82.0	83.2	53	63.2	2	5	90	0.00	29.872 
18:05	81.8	81.8	83.0	53	63.0	1	4	112	0.00	29.870 
18:10	81.6	81.6	82.9	54	63.3	1	5	112	0.00	29.870 
18:15	81.4	81.4	83.0	56	64.2	2	5	90	0.00	29.869 
18:20	81.4	81.4	83.1	57	64.7	2	4	112	0.00	29.871 
18:25	81.2	81.2	82.9	57	64.5	2	5	90	0.00	29.873 
18:30	81.1	81.1	82.9	58	64.9	2	4	90	0.00	29.872 
18:35	80.9	80.9	82.7	58	64.7	2	4	90	0.00	29.873 
18:40	80.9	80.9	82.8	59	65.2	1	5	112	0.00	29.873 
18:45	80.7	80.7	82.4	58	64.5	2	4	68	0.00	29.869 
18:50	80.7	80.7	82.4	58	64.5	2	5	112	0.00	29.870 
18:55	80.5	80.5	82.3	59	64.8	1	2	112	0.00	29.870 
19:00	80.3	80.3	82.5	63	66.5	1	4	112	0.00	29.869 
19:05	80.1	80.1	82.0	61	65.4	0	2	112	0.00	29.864 
19:10	79.8	79.8	81.7	61	65.1	0	2	112	0.00	29.868 
19:15	79.4	79.4	81.4	63	65.7	0	2	112	0.00	29.870 
19:20	79.2	79.2	81.1	62	65.0	0	2	112	0.00	29.873 
19:25	78.8	78.8	80.7	64	65.6	0	0	---	0.00	29.875 
19:30	78.6	78.6	80.5	64	65.4	0	0	---	0.00	29.875 
19:35	78.3	78.3	80.2	65	65.5	0	0	---	0.00	29.875 
19:40	77.9	77.9	79.7	65	65.2	0	0	---	0.00	29.874 
19:45	77.6	77.6	79.4	66	65.3	0	0	---	0.00	29.873 
19:50	77.4	77.4	79.2	67	65.6	0	1	112	0.00	29.876 
19:55	77.0	77.0	78.8	67	65.2	0	0	---	0.00	29.877 
20:00	76.7	76.7	78.5	68	65.3	0	0	---	0.00	29.878 
20:05	76.5	76.5	78.2	69	65.6	0	2	112	0.00	29.877 
20:10	76.5	76.5	78.2	69	65.6	1	1	112	0.00	29.877 
20:15	76.5	76.5	78.2	69	65.6	1	2	112	0.00	29.878 
20:20	76.5	76.5	78.2	69	65.6	0	1	112	0.00	29.880 
20:25	76.3	76.3	78.0	69	65.4	0	1	112	0.00	29.881 
20:30	76.1	76.1	77.8	70	65.6	0	1	112	0.00	29.882 
20:35	75.8	75.8	77.4	71	65.7	0	1	112	0.00	29.885 
20:40	75.4	75.4	77.0	71	65.3	0	3	112	0.00	29.888 
20:45	75.4	75.4	77.1	70	64.9	1	2	90	0.00	29.890 
20:50	75.4	75.4	77.1	69	64.5	2	4	90	0.00	29.890 
20:55	75.4	75.4	77.1	69	64.5	2	4	90	0.00	29.891 
21:00	75.3	75.3	77.1	68	64.0	1	3	90	0.00	29.893 
21:05	75.1	75.1	76.9	68	63.8	1	2	90	0.00	29.892 
21:10	74.9	74.9	74.9	68	63.6	1	3	90	0.00	29.893 
21:15	74.9	74.9	74.9	69	64.0	1	2	90	0.00	29.894 
21:20	74.7	74.7	74.7	69	63.8	1	2	90	0.00	29.894 
21:25	74.6	74.6	74.6	69	63.7	1	2	90	0.00	29.893 
21:30	74.4	74.4	74.4	69	63.5	0	2	90	0.00	29.898 
21:35	74.2	74.2	74.2	70	63.8	0	1	90	0.00	29.901 
21:40	74.0	74.0	74.0	71	64.0	0	1	90	0.00	29.904 
21:45	73.9	73.9	73.9	71	63.9	0	1	90	0.00	29.905 
21:50	73.7	73.7	73.7	71	63.7	0	1	90	0.00	29.904 
21:55	73.5	73.5	73.5	71	63.5	0	1	90	0.00	29.905 
22:00	73.7	73.7	73.7	71	63.7	1	3	90	0.00	29.906 
22:05	73.7	73.7	73.7	71	63.7	1	3	90	0.00	29.903 
22:10	73.5	73.5	73.5	70	63.1	1	2	90	0.00	29.904 
22:15	73.5	73.5	73.5	70	63.1	1	2	90	0.00	29.904 
22:20	73.5	73.5	73.5	69	62.7	1	2	90	0.00	29.905 
22:25	73.5	73.5	73.5	69	62.7	1	2	90	0.00	29.906 
22:30	73.5	73.5	73.5	70	63.1	0	3	90	0.00	29.905 
22:35	73.3	73.3	73.3	70	62.9	0	1	90	0.00	29.906 
22:40	73.2	73.2	73.2	71	63.2	0	1	90	0.00	29.906 
22:45	72.8	72.8	72.8	72	63.2	0	0	---	0.00	29.908 
22:50	72.5	72.5	72.5	72	62.9	0	0	---	0.00	29.908 
22:55	72.0	72.0	72.0	73	62.9	0	0	---	0.00	29.911 
23:00	71.6	71.6	71.6	74	62.9	0	0	---	0.00	29.911 
23:05	71.1	71.1	71.1	75	62.8	0	0	---	0.00	29.911 
23:10	70.8	70.8	70.8	76	62.8	0	0	---	0.00	29.912 
23:15	70.4	70.4	70.4	77	62.8	0	0	---	0.00	29.913 
23:20	70.1	70.1	70.1	77	62.5	0	0	---	0.00	29.914 
23:25	69.8	69.8	69.8	78	62.6	0	0	---	0.00	29.912 
23:30	69.6	69.6	69.6	79	62.8	0	0	---	0.00	29.914 
23:35	69.3	69.3	69.3	79	62.5	0	0	---	0.00	29.917 
23:40	69.1	69.1	69.1	80	62.7	0	0	---	0.00	29.918 
23:45	68.9	68.9	68.9	81	62.8	0	0	---	0.00	29.917 
23:50	68.8	68.8	68.8	81	62.7	0	0	---	0.00	29.919 
23:55	68.4	68.4	68.4	82	62.7	0	0	---	0.00	29.920 

CoCoRaHS
IN-AL-39
A2 Web Hosting
Creative Commons License
GoDaddy
Look for:

loaded 2017-12-11 14:20:34 • last modified 2010-11-18 10:43:29
Privacy PolicyDisclaimer
• wx.awcolley.com is powered by PmWiki v.2002016 •
• all content (unless otherwise noted) © 2017 A W Colley